Time;durP1;ratioP1;P1;durP2;ratioP2;P2;SDS_P1;SDS_P2;PMS_P1;PMS_P2;Temp;Humidity;BMP_temperature;BMP_pressure;BME280_temperature;BME280_humidity;BME280_pressure;Samples;Min_cycle;Max_cycle;Signal;HPM_P1;HPM_P2
2023/01/20 00:00:31;;;;;;;11.75;7.82;;;1.20;59.50;;;;;;4964004;28;20053;-77
2023/01/20 00:02:57;;;;;;;9.82;7.50;;;1.20;59.50;;;;;;4962322;28;20035;-73
2023/01/20 00:05:24;;;;;;;9.18;7.13;;;1.20;59.50;;;;;;4959024;28;20317;-75
2023/01/20 00:07:50;;;;;;;9.93;7.63;;;1.10;59.30;;;;;;4965775;28;20480;-75
2023/01/20 00:10:16;;;;;;;12.02;7.13;;;1.10;59.40;;;;;;4961543;28;20041;-76
2023/01/20 00:12:42;;;;;;;8.25;6.80;;;1.10;59.40;;;;;;4964118;28;20042;-77
2023/01/20 00:15:09;;;;;;;12.43;7.68;;;1.10;59.50;;;;;;4968754;28;20034;-75
2023/01/20 00:17:35;;;;;;;9.43;6.78;;;1.10;59.40;;;;;;4961595;28;20375;-76
2023/01/20 00:20:02;;;;;;;7.93;6.13;;;1.00;59.20;;;;;;4964254;28;20035;-76
2023/01/20 00:22:28;;;;;;;10.77;7.60;;;1.00;59.30;;;;;;4965904;28;20031;-75
2023/01/20 00:24:54;;;;;;;8.50;6.72;;;1.00;59.30;;;;;;4966166;28;20356;-75
2023/01/20 00:27:20;;;;;;;8.55;7.40;;;1.00;59.30;;;;;;4962415;28;20035;-76
2023/01/20 00:29:46;;;;;;;8.90;5.95;;;1.00;59.30;;;;;;4961353;28;20038;-75
2023/01/20 00:32:13;;;;;;;8.75;5.88;;;1.00;59.30;;;;;;4962960;28;20041;-76
2023/01/20 00:34:39;;;;;;;11.48;6.50;;;1.00;59.30;;;;;;4974533;28;20038;-76
2023/01/20 00:37:05;;;;;;;7.50;6.40;;;0.90;59.10;;;;;;4974705;28;20340;-76
2023/01/20 00:39:31;;;;;;;11.90;7.05;;;0.90;59.20;;;;;;4963668;28;20583;-75
2023/01/20 00:41:56;;;;;;;8.15;6.25;;;0.90;59.20;;;;;;4964525;28;20641;-74
2023/01/20 00:44:22;;;;;;;8.65;6.57;;;0.90;59.20;;;;;;4966606;28;20037;-75
2023/01/20 00:46:48;;;;;;;9.35;6.45;;;0.90;59.20;;;;;;4968871;28;20043;-76
2023/01/20 00:49:15;;;;;;;7.45;6.15;;;0.90;59.20;;;;;;4973128;28;20035;-75
2023/01/20 00:51:41;;;;;;;8.80;6.88;;;0.80;59.00;;;;;;4973569;28;20073;-74
2023/01/20 00:54:07;;;;;;;10.15;6.80;;;0.80;59.10;;;;;;4972955;28;20502;-76
2023/01/20 00:56:33;;;;;;;9.52;6.35;;;0.80;59.10;;;;;;4974571;28;20584;-75
2023/01/20 00:58:59;;;;;;;8.25;6.65;;;0.80;59.10;;;;;;4966647;28;20029;-74
2023/01/20 01:01:25;;;;;;;9.23;6.53;;;0.80;59.10;;;;;;4966950;28;20043;-74
2023/01/20 01:03:53;;;;;;;10.27;6.20;;;0.70;58.90;;;;;;4959734;28;20074;-76
2023/01/20 01:06:19;;;;;;;7.38;5.72;;;0.80;59.10;;;;;;4975877;28;20049;-76
2023/01/20 01:08:45;;;;;;;7.97;6.18;;;0.70;59.00;;;;;;4986319;28;20026;-75
2023/01/20 01:11:12;;;;;;;8.23;5.75;;;0.70;59.00;;;;;;4966150;28;20039;-76
2023/01/20 01:13:38;;;;;;;6.82;5.72;;;0.70;59.00;;;;;;4970057;28;20038;-76
2023/01/20 01:16:12;;;;;;;8.55;5.22;;;0.70;59.00;;;;;;4967941;28;20105;-75
2023/01/20 01:18:38;;;;;;;7.57;5.75;;;0.70;59.00;;;;;;4969221;28;20151;-76
2023/01/20 01:21:06;;;;;;;8.90;5.38;;;0.60;58.80;;;;;;4967901;28;20092;-75
2023/01/20 01:23:32;;;;;;;7.57;5.78;;;0.60;58.80;;;;;;4969592;28;20034;-76
2023/01/20 01:25:58;;;;;;;7.85;6.18;;;0.60;58.80;;;;;;4966361;28;20549;-76
2023/01/20 01:28:25;;;;;;;9.25;5.55;;;0.60;58.80;;;;;;4970252;28;20019;-76
2023/01/20 01:30:51;;;;;;;8.50;5.15;;;0.60;58.90;;;;;;4967332;28;20069;-75
2023/01/20 01:33:17;;;;;;;7.07;5.13;;;0.60;58.90;;;;;;4963622;28;20398;-75
2023/01/20 01:35:43;;;;;;;7.40;5.63;;;0.60;58.90;;;;;;4968009;28;20038;-75
2023/01/20 01:38:09;;;;;;;9.00;6.20;;;0.60;58.90;;;;;;4963100;28;20089;-75
2023/01/20 01:40:35;;;;;;;10.07;5.15;;;0.50;58.70;;;;;;4970896;28;20031;-75
2023/01/20 01:43:01;;;;;;;6.47;4.85;;;0.50;58.70;;;;;;4967265;28;20046;-75
2023/01/20 01:45:29;;;;;;;7.47;5.38;;;0.50;58.70;;;;;;4965626;28;20336;-77
2023/01/20 01:48:08;;;;;;;6.68;5.00;;;0.50;58.70;;;;;;4966488;28;20039;-76
2023/01/20 01:50:49;;;;;;;6.50;4.95;;;0.50;58.80;;;;;;4965603;28;20050;-77
2023/01/20 01:53:16;;;;;;;8.75;5.55;;;0.50;58.80;;;;;;4967090;28;20027;-74
2023/01/20 01:55:50;;;;;;;5.72;4.88;;;0.50;58.80;;;;;;4966291;28;20065;-75
2023/01/20 01:58:21;;;;;;;9.60;5.43;;;0.50;58.80;;;;;;4966920;28;20135;-76
2023/01/20 02:00:48;;;;;;;6.90;5.05;;;0.40;58.60;;;;;;4961917;28;20322;-75
2023/01/20 02:03:14;;;;;;;5.25;4.47;;;0.40;58.60;;;;;;4972553;28;20038;-74
2023/01/20 02:05:42;;;;;;;8.27;4.85;;;0.40;58.60;;;;;;4969057;28;20034;-75
2023/01/20 02:08:08;;;;;;;6.95;5.05;;;0.40;58.60;;;;;;4966455;28;20035;-76
2023/01/20 02:10:34;;;;;;;6.30;4.88;;;0.40;58.60;;;;;;4965670;28;20039;-76
2023/01/20 02:13:01;;;;;;;6.47;4.68;;;0.40;58.70;;;;;;4965336;28;20035;-76
2023/01/20 02:15:34;;;;;;;8.10;5.40;;;0.40;58.70;;;;;;4966741;28;20045;-75
2023/01/20 02:18:25;;;;;;;5.38;4.70;;;0.30;58.50;;;;;;4973508;28;20074;-75
2023/01/20 02:21:09;;;;;;;6.80;5.38;;;0.30;58.50;;;;;;4963355;28;20043;-75
2023/01/20 02:23:48;;;;;;;5.30;4.00;;;0.30;58.50;;;;;;4966488;28;20438;-75
2023/01/20 02:26:41;;;;;;;7.00;4.60;;;0.30;58.50;;;;;;4966972;28;20042;-74
2023/01/20 02:29:22;;;;;;;5.50;3.95;;;0.30;58.50;;;;;;4966331;28;20038;-74
2023/01/20 02:32:22;;;;;;;6.43;5.18;;;0.30;58.50;;;;;;4966102;28;20057;-75
2023/01/20 02:34:57;;;;;;;8.88;4.30;;;0.30;58.50;;;;;;4966005;28;20045;-76
2023/01/20 02:37:44;;;;;;;7.65;4.82;;;0.20;58.30;;;;;;4962405;28;20074;-75
2023/01/20 02:40:53;;;;;;;7.68;4.40;;;0.20;58.30;;;;;;4964556;28;20113;-75
2023/01/20 02:43:41;;;;;;;6.60;5.10;;;0.20;58.30;;;;;;4963480;28;20517;-76
2023/01/20 02:46:33;;;;;;;5.22;4.30;;;0.20;58.30;;;;;;4971739;23;20340;-78
2023/01/20 02:49:18;;;;;;;7.60;4.90;;;0.20;58.40;;;;;;4967363;28;20042;-78
2023/01/20 02:52:01;;;;;;;7.63;3.97;;;0.20;58.40;;;;;;4968525;28;20062;-78
2023/01/20 02:54:30;;;;;;;7.18;4.88;;;0.20;58.40;;;;;;4969299;28;20034;-76
2023/01/20 02:56:58;;;;;;;7.03;4.75;;;0.20;58.40;;;;;;4968345;28;20187;-76
2023/01/20 02:59:31;;;;;;;6.85;4.05;;;0.10;58.20;;;;;;4958826;28;20435;-76
2023/01/20 03:02:03;;;;;;;7.53;4.80;;;0.10;58.30;;;;;;4965188;28;20551;-76
2023/01/20 03:04:39;;;;;;;6.60;4.40;;;0.10;58.20;;;;;;4966413;28;20026;-76
2023/01/20 03:07:08;;;;;;;8.27;4.57;;;0.10;58.30;;;;;;4966977;28;20046;-76
2023/01/20 03:09:40;;;;;;;5.07;4.25;;;0.10;58.30;;;;;;4962718;28;20039;-75
2023/01/20 03:12:24;;;;;;;4.72;3.97;;;0.10;58.30;;;;;;4963707;28;20125;-76
2023/01/20 03:14:51;;;;;;;6.43;3.92;;;0.10;58.30;;;;;;4965400;28;20125;-77
2023/01/20 03:17:18;;;;;;;7.10;4.65;;;0.10;58.30;;;;;;4964605;28;20049;-76
2023/01/20 03:19:44;;;;;;;6.70;4.25;;;0.10;58.30;;;;;;4966268;28;20122;-76
2023/01/20 03:22:11;;;;;;;6.30;4.20;;;0.10;58.30;;;;;;4981626;28;20034;-77
2023/01/20 03:24:39;;;;;;;5.75;4.40;;;0.00;58.20;;;;;;4967753;28;20046;-76
2023/01/20 03:27:06;;;;;;;7.97;4.50;;;0.10;58.40;;;;;;4974062;28;20027;-77
2023/01/20 03:29:32;;;;;;;6.25;4.53;;;0.10;58.40;;;;;;4971526;28;20099;-79
2023/01/20 03:32:00;;;;;;;6.15;4.57;;;0.00;58.20;;;;;;4973048;28;20034;-77
2023/01/20 03:34:30;;;;;;;7.40;4.15;;;0.00;58.20;;;;;;4977660;28;20484;-78
2023/01/20 03:36:57;;;;;;;7.93;4.43;;;0.00;58.20;;;;;;4981570;28;20034;-78
2023/01/20 03:39:23;;;;;;;8.63;3.83;;;0.10;58.30;;;;;;4990492;28;20189;-78
2023/01/20 03:42:21;;;;;;;8.85;4.15;;;0.10;58.40;;;;;;4991673;28;20093;-78
2023/01/20 03:44:59;;;;;;;7.47;3.88;;;0.00;58.20;;;;;;5008900;28;20078;-78
2023/01/20 03:47:40;;;;;;;6.20;4.05;;;0.00;58.20;;;;;;5009930;28;20056;-77
2023/01/20 03:50:12;;;;;;;7.53;4.13;;;0.10;58.30;;;;;;5001786;28;20129;-79
2023/01/20 03:53:09;;;;;;;5.43;3.72;;;0.00;58.20;;;;;;4997869;28;20517;-78
2023/01/20 03:55:57;;;;;;;7.55;4.13;;;0.10;58.30;;;;;;5010194;28;20049;-78
2023/01/20 03:58:30;;;;;;;5.07;3.08;;;0.00;58.20;;;;;;4988688;28;20057;-78
2023/01/20 04:00:56;;;;;;;3.78;3.42;;;0.00;58.10;;;;;;4979821;28;20023;-78
2023/01/20 04:03:27;;;;;;;6.82;3.38;;;0.00;58.20;;;;;;4985657;28;20031;-79
2023/01/20 04:05:55;;;;;;;6.32;3.67;;;0.00;58.20;;;;;;4983009;28;20034;-79
2023/01/20 04:08:24;;;;;;;5.22;3.20;;;0.00;58.20;;;;;;4991737;28;20038;-78
2023/01/20 04:10:51;;;;;;;7.57;3.40;;;0.00;58.20;;;;;;4982771;28;20082;-78
2023/01/20 04:13:17;;;;;;;3.88;2.90;;;0.00;58.20;;;;;;4980060;28;20045;-79
2023/01/20 04:15:44;;;;;;;4.85;3.15;;;0.00;58.20;;;;;;4990125;28;20030;-78
2023/01/20 04:18:22;;;;;;;5.00;2.65;;;0.00;58.20;;;;;;4993137;28;20482;-78
2023/01/20 04:21:01;;;;;;;4.60;3.33;;;0.00;58.30;;;;;;4992941;28;20133;-77
2023/01/20 04:23:51;;;;;;;4.57;2.67;;;-0.10;58.10;;;;;;4970387;28;20254;-78
2023/01/20 04:26:17;;;;;;;7.60;2.88;;;0.00;58.30;;;;;;4994295;28;20117;-78
2023/01/20 04:28:43;;;;;;;5.88;3.03;;;0.00;58.30;;;;;;4989575;28;20133;-78
2023/01/20 04:31:10;;;;;;;4.10;2.63;;;-0.10;58.10;;;;;;4972376;28;20509;-78
2023/01/20 04:33:37;;;;;;;4.50;2.97;;;-0.10;58.70;;;;;;4985603;28;20857;-77
2023/01/20 04:36:04;;;;;;;5.80;2.88;;;-0.10;58.10;;;;;;4982037;28;20379;-77
2023/01/20 04:38:29;;;;;;;3.70;2.90;;;-0.10;58.10;;;;;;4976136;28;20026;-79
2023/01/20 04:40:55;;;;;;;5.43;3.13;;;-0.10;58.10;;;;;;4993603;28;20193;-80
2023/01/20 04:43:21;;;;;;;4.55;2.92;;;-0.10;58.10;;;;;;4978678;28;20641;-78
2023/01/20 04:45:47;;;;;;;4.35;2.88;;;-0.10;58.10;;;;;;4990614;28;20042;-78
2023/01/20 04:48:13;;;;;;;5.45;2.80;;;-0.10;58.10;;;;;;4979174;28;20038;-78
2023/01/20 04:50:40;;;;;;;4.32;3.05;;;-0.10;58.10;;;;;;4991142;28;20050;-78
2023/01/20 04:53:06;;;;;;;4.90;3.13;;;-0.10;58.10;;;;;;4976356;28;20037;-78
2023/01/20 04:55:33;;;;;;;3.80;2.53;;;-0.20;57.90;;;;;;4989567;28;20076;-78
2023/01/20 04:57:58;;;;;;;6.30;2.92;;;-0.10;58.10;;;;;;4990500;28;20052;-78
2023/01/20 05:00:24;;;;;;;4.00;3.03;;;-0.20;57.90;;;;;;4974212;28;20102;-78
2023/01/20 05:02:50;;;;;;;3.45;2.70;;;-0.20;58.00;;;;;;4966305;28;20408;-77
2023/01/20 05:05:16;;;;;;;4.88;2.92;;;-0.20;58.00;;;;;;4978086;28;20041;-78
2023/01/20 05:07:42;;;;;;;4.90;3.17;;;-0.20;58.00;;;;;;4990286;28;20030;-78
2023/01/20 05:10:08;;;;;;;6.18;3.08;;;-0.20;58.00;;;;;;4986193;28;20030;-78
2023/01/20 05:12:35;;;;;;;3.58;2.75;;;-0.20;58.00;;;;;;4989395;28;20034;-78
2023/01/20 05:15:01;;;;;;;4.20;2.97;;;-0.20;58.00;;;;;;4965343;28;20108;-77
2023/01/20 05:17:27;;;;;;;5.20;2.72;;;-0.30;57.80;;;;;;4991011;28;20039;-76
2023/01/20 05:19:53;;;;;;;3.53;3.00;;;-0.20;58.00;;;;;;4989333;28;20030;-76
2023/01/20 05:22:19;;;;;;;4.70;2.78;;;-0.30;57.80;;;;;;4989649;28;20042;-77
2023/01/20 05:24:45;;;;;;;5.25;3.17;;;-0.30;57.90;;;;;;4963116;28;20252;-82
2023/01/20 05:27:10;;;;;;;5.30;3.10;;;-0.30;57.80;;;;;;4983283;28;20038;-75
2023/01/20 05:29:36;;;;;;;5.18;3.08;;;-0.30;57.90;;;;;;4973548;28;20042;-77
2023/01/20 05:32:02;;;;;;;6.05;3.40;;;-0.30;57.90;;;;;;4975218;28;20037;-76
2023/01/20 05:34:28;;;;;;;4.00;2.95;;;-0.30;57.90;;;;;;4979547;28;20034;-76
2023/01/20 05:36:54;;;;;;;4.57;2.95;;;-0.40;57.70;;;;;;4974170;28;20051;-76
2023/01/20 05:39:20;;;;;;;3.97;2.92;;;-0.30;57.90;;;;;;4987462;28;20363;-77
2023/01/20 05:41:47;;;;;;;5.85;3.42;;;-0.30;57.90;;;;;;4989107;28;20034;-76
2023/01/20 05:44:14;;;;;;;4.28;3.53;;;-0.40;57.70;;;;;;4973032;28;20038;-77
2023/01/20 05:46:39;;;;;;;3.40;2.80;;;-0.40;57.70;;;;;;4959865;28;20099;-78
2023/01/20 05:49:05;;;;;;;5.63;3.17;;;-0.40;57.70;;;;;;4980752;28;20394;-78
2023/01/20 05:51:31;;;;;;;3.92;3.40;;;-0.30;57.90;;;;;;4978755;28;20053;-78
2023/01/20 05:53:57;;;;;;;7.97;3.67;;;-0.40;57.70;;;;;;4969919;28;20034;-80
2023/01/20 05:56:23;;;;;;;5.47;3.40;;;-0.40;57.70;;;;;;4979347;28;20046;-79
2023/01/20 05:58:53;;;;;;;4.78;3.08;;;-0.40;57.70;;;;;;4985748;28;20030;-79
2023/01/20 06:01:19;;;;;;;4.53;3.35;;;-0.40;57.70;;;;;;4970921;28;20487;-79
2023/01/20 06:03:45;;;;;;;4.38;2.60;;;-0.40;57.70;;;;;;4971862;28;20034;-78
2023/01/20 06:06:14;;;;;;;3.72;2.88;;;-0.40;57.70;;;;;;4981005;28;20046;-79
2023/01/20 06:08:40;;;;;;;5.47;2.83;;;-0.50;57.50;;;;;;4985131;28;20033;-77
2023/01/20 06:11:06;;;;;;;4.30;2.70;;;-0.50;57.60;;;;;;4976413;28;20035;-78
2023/01/20 06:13:34;;;;;;;4.63;3.03;;;-0.50;57.60;;;;;;4983104;28;20382;-79
2023/01/20 06:16:00;;;;;;;4.65;2.70;;;-0.40;57.70;;;;;;4982221;28;20038;-79
2023/01/20 06:18:26;;;;;;;4.57;3.13;;;-0.40;57.70;;;;;;4979987;28;20089;-79
2023/01/20 06:20:57;;;;;;;3.72;3.00;;;-0.50;57.60;;;;;;4977157;28;20078;-78
2023/01/20 06:23:24;;;;;;;4.75;3.05;;;-0.50;57.60;;;;;;4967556;28;20026;-80
2023/01/20 06:25:58;;;;;;;4.75;3.20;;;-0.50;57.60;;;;;;4970319;28;20039;-83
2023/01/20 06:28:24;;;;;;;3.63;2.90;;;-0.50;57.60;;;;;;4979037;28;20035;-83
2023/01/20 06:30:49;;;;;;;5.22;3.80;;;-0.50;57.60;;;;;;4969193;28;20042;-85
2023/01/20 06:33:15;;;;;;;4.65;2.90;;;-0.60;57.40;;;;;;4979224;28;20135;-85
2023/01/20 06:35:41;;;;;;;6.30;3.75;;;-0.50;57.60;;;;;;4983674;28;20061;-87
2023/01/20 06:38:07;;;;;;;7.43;3.20;;;-0.60;57.40;;;;;;4967859;28;20088;-77
2023/01/20 06:40:33;;;;;;;4.55;3.15;;;-0.60;57.40;;;;;;4969847;28;20039;-77
2023/01/20 06:42:59;;;;;;;5.70;3.90;;;-0.60;57.40;;;;;;4963107;28;20892;-85
2023/01/20 06:45:25;;;;;;;8.35;3.83;;;-0.60;57.40;;;;;;4973864;28;20034;-87
2023/01/20 06:47:51;;;;;;;4.70;4.15;;;-0.60;57.50;;;;;;4963292;28;20065;-85
2023/01/20 06:50:16;;;;;;;6.32;4.38;;;-0.60;57.60;;;;;;4972133;28;20031;-85
2023/01/20 06:52:42;;;;;;;4.68;3.80;;;-0.50;57.80;;;;;;4984147;28;20496;-85
2023/01/20 06:55:08;;;;;;;7.22;4.13;;;-0.50;57.70;;;;;;4984390;28;20399;-78
2023/01/20 06:57:34;;;;;;;6.55;4.75;;;-0.50;57.60;;;;;;4973709;28;20046;-75
2023/01/20 07:00:00;;;;;;;5.03;3.65;;;-0.50;57.60;;;;;;4950960;28;20314;-79
2023/01/20 07:02:26;;;;;;;6.53;3.88;;;-0.50;57.60;;;;;;4963807;28;20035;-80
2023/01/20 07:04:52;;;;;;;4.38;3.72;;;-0.50;57.60;;;;;;4959318;28;20129;-83
2023/01/20 07:07:18;;;;;;;5.38;4.03;;;-0.50;58.10;;;;;;4974551;28;20072;-82
2023/01/20 07:09:44;;;;;;;6.40;4.15;;;-0.50;57.60;;;;;;4970866;28;20042;-87
2023/01/20 07:12:10;;;;;;;5.18;4.40;;;-0.60;57.40;;;;;;4963733;28;20187;-78
2023/01/20 07:14:35;;;;;;;7.38;4.70;;;-0.60;57.50;;;;;;4972262;28;20449;-78
2023/01/20 07:17:01;;;;;;;6.75;4.32;;;-0.60;57.40;;;;;;4980969;28;20494;-78
2023/01/20 07:19:27;;;;;;;9.20;4.40;;;-0.60;57.50;;;;;;4970214;28;20121;-79
2023/01/20 07:21:53;;;;;;;9.77;4.88;;;-0.70;57.40;;;;;;4982651;28;20034;-78
2023/01/20 07:24:19;;;;;;;9.05;4.75;;;-0.70;57.40;;;;;;4982666;28;20034;-78
2023/01/20 07:26:45;;;;;;;8.93;4.72;;;-0.70;57.40;;;;;;4982353;28;20430;-79
2023/01/20 07:29:11;;;;;;;8.02;4.90;;;-0.70;57.40;;;;;;4966785;28;20035;-79
2023/01/20 07:31:37;;;;;;;6.05;5.03;;;-0.70;57.30;;;;;;4982210;28;20104;-78
2023/01/20 07:34:03;;;;;;;9.90;5.15;;;-0.70;57.30;;;;;;4977960;28;20132;-79
2023/01/20 07:36:29;;;;;;;5.78;4.45;;;-0.70;57.30;;;;;;4971289;28;20522;-78
2023/01/20 07:38:55;;;;;;;8.48;4.78;;;-0.70;57.40;;;;;;4972110;28;20534;-77
2023/01/20 07:41:21;;;;;;;5.38;4.80;;;-0.70;57.40;;;;;;4979762;28;20030;-79
2023/01/20 07:43:51;;;;;;;7.03;4.97;;;-0.70;57.30;;;;;;4972234;28;20027;-77
2023/01/20 07:46:19;;;;;;;7.85;5.70;;;-0.70;57.40;;;;;;4966907;28;20582;-78
2023/01/20 07:48:45;;;;;;;18.77;6.10;;;-0.70;57.40;;;;;;4972481;28;20558;-80
2023/01/20 07:51:13;;;;;;;6.43;4.95;;;-0.70;57.40;;;;;;4962636;28;20042;-75
2023/01/20 07:53:45;;;;;;;9.23;5.75;;;-0.70;57.40;;;;;;4947903;28;20375;-77
2023/01/20 07:56:14;;;;;;;8.88;6.63;;;-0.70;57.30;;;;;;4955273;28;20058;-79
2023/01/20 07:58:40;;;;;;;7.82;5.13;;;-0.70;57.30;;;;;;4968022;28;20130;-79
2023/01/20 08:01:08;;;;;;;6.63;4.50;;;-0.70;57.20;;;;;;4962162;28;20041;-79
2023/01/20 08:03:34;;;;;;;6.55;4.68;;;-0.70;57.20;;;;;;4962342;28;20031;-80
2023/01/20 08:06:05;;;;;;;5.78;4.20;;;-0.60;57.90;;;;;;4965033;28;20035;-79
2023/01/20 08:08:31;;;;;;;6.15;4.38;;;-0.70;57.20;;;;;;4964738;28;20523;-79
2023/01/20 08:11:00;;;;;;;9.23;4.47;;;-0.70;57.20;;;;;;4963644;28;20393;-79
2023/01/20 08:13:27;;;;;;;5.72;4.90;;;-0.70;57.20;;;;;;4963702;28;20345;-76
2023/01/20 08:15:53;;;;;;;12.35;6.18;;;-0.70;57.20;;;;;;4960983;28;20070;-78
2023/01/20 08:18:18;;;;;;;6.68;5.00;;;-0.70;57.20;;;;;;4964723;28;20524;-78
2023/01/20 08:20:44;;;;;;;12.30;4.30;;;-0.70;57.20;;;;;;4978595;28;20038;-81
2023/01/20 08:23:10;;;;;;;5.47;3.97;;;-0.70;57.20;;;;;;4983133;28;20077;-82
2023/01/20 08:25:36;;;;;;;8.32;3.85;;;-0.70;57.20;;;;;;4979882;28;20030;-80
2023/01/20 08:28:02;;;;;;;6.85;4.43;;;-0.70;57.20;;;;;;4958775;28;20042;-80
2023/01/20 08:30:28;;;;;;;7.72;4.20;;;-0.70;57.10;;;;;;4966337;28;20391;-78
2023/01/20 08:32:55;;;;;;;6.68;4.50;;;-0.70;57.60;;;;;;4956115;28;20127;-80
2023/01/20 08:35:21;;;;;;;7.07;4.07;;;-0.70;57.10;;;;;;4960637;28;20290;-79
2023/01/20 08:37:47;;;;;;;7.13;4.22;;;-0.70;57.00;;;;;;4972924;28;20285;-79
2023/01/20 08:40:16;;;;;;;9.13;4.88;;;-0.70;57.00;;;;;;4970428;28;20799;-79
2023/01/20 08:42:42;;;;;;;6.75;4.22;;;-0.70;57.00;;;;;;4961450;28;20042;-79
2023/01/20 08:45:08;;;;;;;7.97;5.07;;;-0.60;57.20;;;;;;4962555;28;20105;-80
2023/01/20 08:47:36;;;;;;;7.95;5.85;;;-0.70;57.00;;;;;;4932031;28;20057;-78
2023/01/20 08:50:04;;;;;;;5.97;5.25;;;-0.70;57.00;;;;;;4970230;28;20047;-79
2023/01/20 08:52:30;;;;;;;8.45;5.85;;;-0.60;57.20;;;;;;4951539;28;20039;-79
2023/01/20 08:54:57;;;;;;;6.85;5.32;;;-0.60;57.20;;;;;;4958107;28;20035;-81
2023/01/20 08:57:26;;;;;;;7.95;5.53;;;-0.60;57.10;;;;;;4963479;28;20522;-80
2023/01/20 08:59:53;;;;;;;8.18;5.72;;;-0.60;57.10;;;;;;4963785;28;20034;-78
2023/01/20 09:02:21;;;;;;;7.28;5.30;;;-0.50;57.20;;;;;;4958324;28;20034;-80
2023/01/20 09:04:49;;;;;;;7.47;5.28;;;-0.50;57.20;;;;;;4942185;28;20481;-80
2023/01/20 09:07:17;;;;;;;7.13;5.40;;;-0.50;57.20;;;;;;4955928;28;20022;-79
2023/01/20 09:09:43;;;;;;;8.32;5.20;;;-0.50;57.10;;;;;;4964892;28;20035;-87
2023/01/20 09:12:09;;;;;;;5.72;5.13;;;-0.50;57.10;;;;;;4967268;28;20078;-79
2023/01/20 09:14:35;;;;;;;9.30;6.00;;;-0.50;57.10;;;;;;4962219;28;20039;-76
2023/01/20 09:17:01;;;;;;;10.07;6.53;;;-0.40;57.20;;;;;;4966418;28;20462;-77
2023/01/20 09:19:28;;;;;;;11.80;7.45;;;-0.40;57.20;;;;;;4971808;28;20045;-77
2023/01/20 09:21:54;;;;;;;12.90;8.10;;;-0.40;57.10;;;;;;4967411;28;20656;-80
2023/01/20 09:24:20;;;;;;;15.23;9.90;;;-0.40;57.10;;;;;;4933533;28;20030;-80
2023/01/20 09:26:47;;;;;;;14.38;10.13;;;-0.40;57.10;;;;;;4958062;28;20070;-79
2023/01/20 09:29:16;;;;;;;15.75;10.93;;;-0.30;57.30;;;;;;4967173;28;20039;-80
2023/01/20 09:31:51;;;;;;;17.38;12.18;;;-0.30;57.20;;;;;;4964385;28;20238;-80
2023/01/20 09:34:22;;;;;;;18.88;11.30;;;-0.20;57.40;;;;;;4965201;28;20049;-81
2023/01/20 09:36:54;;;;;;;16.95;11.73;;;-0.20;57.30;;;;;;4968542;28;20038;-80
2023/01/20 09:45:52;;;;;;;21.60;13.60;;;-0.10;57.40;;;;;;4952474;28;20038;-80
2023/01/20 09:54:16;;;;;;;16.75;12.35;;;0.00;57.40;;;;;;4961792;28;19933;-81
2023/01/20 09:56:47;;;;;;;16.58;12.40;;;0.00;57.30;;;;;;4964964;28;20829;-80
2023/01/20 09:59:22;;;;;;;17.75;12.10;;;0.10;57.40;;;;;;4967659;28;20027;-81
2023/01/20 10:01:53;;;;;;;16.13;11.80;;;0.10;57.40;;;;;;4964844;28;20049;-80
2023/01/20 10:04:46;;;;;;;14.48;11.32;;;0.20;57.60;;;;;;4960774;28;20482;-79
2023/01/20 10:07:31;;;;;;;15.07;11.30;;;0.20;57.60;;;;;;4949482;28;20046;-79
2023/01/20 10:10:22;;;;;;;15.02;10.13;;;0.20;57.60;;;;;;4965444;28;20031;-81
2023/01/20 10:12:55;;;;;;;17.40;10.05;;;0.30;57.70;;;;;;4966182;28;20046;-77
2023/01/20 10:15:24;;;;;;;24.70;11.30;;;0.30;57.70;;;;;;4963361;28;20106;-78
2023/01/20 10:18:04;;;;;;;16.13;9.98;;;0.40;57.90;;;;;;4962529;28;20149;-76
2023/01/20 10:20:53;;;;;;;14.13;9.80;;;0.40;57.90;;;;;;4959064;28;20035;-77
2023/01/20 10:23:33;;;;;;;16.65;10.63;;;0.50;58.00;;;;;;4973482;28;20458;-78
2023/01/20 10:26:15;;;;;;;12.73;8.85;;;0.50;58.00;;;;;;4985585;28;20032;-78
2023/01/20 10:29:01;;;;;;;14.75;10.02;;;0.50;58.00;;;;;;4966015;28;20403;-77
2023/01/20 10:31:33;;;;;;;13.68;9.32;;;0.60;58.20;;;;;;4966542;28;20408;-78
2023/01/20 10:34:10;;;;;;;13.95;9.25;;;0.70;58.40;;;;;;4960841;28;20058;-78
2023/01/20 10:36:40;;;;;;;15.40;9.63;;;0.70;58.30;;;;;;4946597;28;20043;-77
2023/01/20 10:39:33;;;;;;;13.85;8.70;;;0.80;58.50;;;;;;4968574;28;20484;-75
2023/01/20 10:42:08;;;;;;;13.98;8.90;;;0.80;58.50;;;;;;4965611;28;20043;-79
2023/01/20 10:44:34;;;;;;;12.48;9.10;;;0.80;58.40;;;;;;4964839;28;20629;-78
2023/01/20 10:47:03;;;;;;;12.10;8.95;;;0.90;58.60;;;;;;4963336;28;20050;-78
2023/01/20 10:49:53;;;;;;;13.75;8.98;;;0.90;58.70;;;;;;4967274;28;20038;-77
2023/01/20 10:52:19;;;;;;;13.02;8.88;;;1.00;58.80;;;;;;4965350;28;20122;-78
2023/01/20 10:55:12;;;;;;;13.82;9.00;;;1.10;59.00;;;;;;4962047;28;20709;-79
2023/01/20 10:57:38;;;;;;;11.00;9.25;;;1.10;59.00;;;;;;4964107;28;20034;-78
2023/01/20 11:00:13;;;;;;;13.85;9.32;;;1.20;59.10;;;;;;4964337;28;20035;-78
2023/01/20 11:02:41;;;;;;;14.25;9.60;;;1.20;59.10;;;;;;4962590;28;20031;-78
2023/01/20 11:05:23;;;;;;;11.63;8.50;;;1.30;59.30;;;;;;4966555;28;20035;-78
2023/01/20 11:07:52;;;;;;;13.32;8.13;;;1.30;59.30;;;;;;4971723;28;20043;-78
2023/01/20 11:10:19;;;;;;;14.30;8.63;;;1.40;59.50;;;;;;4982564;28;20044;-79
2023/01/20 11:12:50;;;;;;;15.50;7.93;;;1.40;59.50;;;;;;4977454;28;20092;-79
2023/01/20 11:15:22;;;;;;;12.48;7.68;;;1.50;59.60;;;;;;4983580;28;20046;-78
2023/01/20 11:18:27;;;;;;;10.32;6.82;;;1.50;59.60;;;;;;4982903;28;20453;-78
2023/01/20 11:20:55;;;;;;;13.45;7.07;;;1.60;59.80;;;;;;4973806;28;20038;-78
2023/01/20 11:23:25;;;;;;;8.30;5.93;;;1.70;59.90;;;;;;4982279;28;20046;-80
2023/01/20 11:25:54;;;;;;;13.63;6.03;;;1.80;60.10;;;;;;4959012;28;20153;-75
2023/01/20 11:28:22;;;;;;;11.63;6.07;;;1.80;60.10;;;;;;4983855;28;20045;-82
2023/01/20 11:30:53;;;;;;;9.52;6.03;;;1.90;60.20;;;;;;4982139;28;20093;-79
2023/01/20 11:33:25;;;;;;;11.85;6.25;;;1.90;60.20;;;;;;4969081;28;20451;-77
2023/01/20 11:36:00;;;;;;;10.60;5.43;;;2.00;60.40;;;;;;4973721;28;20465;-79
2023/01/20 11:38:39;;;;;;;8.57;4.75;;;2.00;60.40;;;;;;4960101;28;20045;-78
2023/01/20 11:41:20;;;;;;;12.77;5.35;;;2.10;60.50;;;;;;4964640;28;20085;-78
2023/01/20 11:43:47;;;;;;;8.20;5.13;;;2.10;60.50;;;;;;4960357;28;20133;-77
2023/01/20 11:46:21;;;;;;;7.00;4.30;;;2.20;60.70;;;;;;4966207;28;20043;-78
2023/01/20 11:48:47;;;;;;;9.75;4.50;;;2.20;60.70;;;;;;4977006;28;20895;-78
2023/01/20 11:51:24;;;;;;;8.27;4.22;;;2.30;60.90;;;;;;4968575;28;20030;-77
2023/01/20 11:54:04;;;;;;;6.68;4.07;;;2.40;61.10;;;;;;4969903;28;20382;-77
2023/01/20 11:56:39;;;;;;;8.95;4.28;;;2.40;61.10;;;;;;4973460;28;20043;-78
2023/01/20 11:59:18;;;;;;;4.72;3.95;;;2.40;61.00;;;;;;4962432;28;20038;-77
2023/01/20 12:02:18;;;;;;;10.50;5.45;;;2.50;61.20;;;;;;4982550;28;20477;-79
2023/01/20 12:04:57;;;;;;;7.40;4.03;;;2.60;61.60;;;;;;4942566;28;20490;-79
2023/01/20 12:07:29;;;;;;;10.15;5.72;;;2.70;61.70;;;;;;4960886;28;20043;-78
2023/01/20 12:10:21;;;;;;;7.90;3.90;;;2.80;61.80;;;;;;4973263;28;20060;-78
2023/01/20 12:12:52;;;;;;;6.28;4.00;;;3.00;62.00;;;;;;4979586;28;20031;-78
2023/01/20 12:15:22;;;;;;;5.13;3.88;;;3.00;61.90;;;;;;4981570;28;20026;-79
2023/01/20 12:17:48;;;;;;;6.00;3.60;;;3.10;62.10;;;;;;4979867;28;20398;-79
2023/01/20 12:20:22;;;;;;;7.47;4.07;;;3.10;62.00;;;;;;4979546;28;20034;-80
2023/01/20 12:23:20;;;;;;;7.72;3.53;;;3.20;62.20;;;;;;4983732;28;20082;-78
2023/01/20 12:26:00;;;;;;;6.65;3.95;;;3.20;62.30;;;;;;4962058;28;20125;-77
2023/01/20 12:28:46;;;;;;;7.85;3.30;;;3.30;62.40;;;;;;4961121;28;20416;-77
2023/01/20 12:31:18;;;;;;;9.95;4.32;;;3.40;62.50;;;;;;4979006;28;20352;-76
2023/01/20 12:33:47;;;;;;;6.80;4.03;;;3.40;62.50;;;;;;4961344;28;20042;-79
2023/01/20 12:36:52;;;;;;;7.28;3.20;;;3.40;62.50;;;;;;4966421;28;20599;-83
2023/01/20 12:39:46;;;;;;;6.85;3.30;;;3.50;62.80;;;;;;4951206;28;20061;-82
2023/01/20 12:42:46;;;;;;;8.27;3.53;;;3.50;62.70;;;;;;4961492;28;20045;-79
2023/01/20 12:45:24;;;;;;;9.00;4.45;;;3.50;62.80;;;;;;4960604;28;20045;-82
2023/01/20 12:48:35;;;;;;;7.13;3.58;;;3.70;63.30;;;;;;4951026;28;20514;-80
2023/01/20 12:51:13;;;;;;;6.75;3.42;;;3.70;63.30;;;;;;4956570;28;20067;-82
2023/01/20 12:53:58;;;;;;;8.13;3.58;;;3.90;63.40;;;;;;4955040;28;20031;-82
2023/01/20 12:56:30;;;;;;;5.13;2.90;;;4.00;63.60;;;;;;4963631;28;20066;-83
2023/01/20 12:58:55;;;;;;;7.82;3.03;;;4.00;63.50;;;;;;4944153;28;20061;-83
2023/01/20 13:01:39;;;;;;;8.05;2.90;;;4.00;63.50;;;;;;4960233;28;20077;-83
2023/01/20 13:04:27;;;;;;;5.00;2.47;;;4.10;63.70;;;;;;4966959;28;20034;-83
2023/01/20 13:07:27;;;;;;;6.80;2.80;;;4.10;63.70;;;;;;4980480;28;20610;-83
2023/01/20 13:10:21;;;;;;;7.35;2.58;;;4.10;63.70;;;;;;4977300;28;20117;-83
2023/01/20 13:13:05;;;;;;;3.70;2.47;;;4.10;63.80;;;;;;4967039;28;20214;-83
2023/01/20 13:15:43;;;;;;;8.10;3.10;;;4.10;63.70;;;;;;4954659;28;20039;-82
2023/01/20 13:18:21;;;;;;;6.72;2.80;;;4.10;63.80;;;;;;4965732;28;20088;-83
2023/01/20 13:20:48;;;;;;;6.65;2.70;;;4.20;64.00;;;;;;4960224;28;20042;-80
2023/01/20 13:23:19;;;;;;;7.57;2.40;;;4.20;63.90;;;;;;4983955;28;20061;-79